sensor_id;sensor_type;location;lat;lon;timestamp;temperature;humidity
45066;DHT22;30830;53.704;10.004;2023-05-07T00:01:36;8.60;99.90
45066;DHT22;30830;53.704;10.004;2023-05-07T00:04:02;8.60;99.90
45066;DHT22;30830;53.704;10.004;2023-05-07T00:06:28;8.60;99.90
45066;DHT22;30830;53.704;10.004;2023-05-07T00:08:55;8.50;99.90
45066;DHT22;30830;53.704;10.004;2023-05-07T00:11:21;8.50;99.90
45066;DHT22;30830;53.704;10.004;2023-05-07T00:13:47;8.50;99.90
45066;DHT22;30830;53.704;10.004;2023-05-07T00:16:13;8.50;99.90
45066;DHT22;30830;53.704;10.004;2023-05-07T00:18:39;8.50;99.90
45066;DHT22;30830;53.704;10.004;2023-05-07T00:21:04;8.50;99.90
45066;DHT22;30830;53.704;10.004;2023-05-07T00:23:30;8.50;99.90
45066;DHT22;30830;53.704;10.004;2023-05-07T00:25:56;8.50;99.90
45066;DHT22;30830;53.704;10.004;2023-05-07T00:28:21;8.50;99.90
45066;DHT22;30830;53.704;10.004;2023-05-07T00:30:47;8.50;99.90
45066;DHT22;30830;53.704;10.004;2023-05-07T00:33:13;8.50;99.90
45066;DHT22;30830;53.704;10.004;2023-05-07T00:35:38;8.50;99.90
45066;DHT22;30830;53.704;10.004;2023-05-07T00:38:04;8.50;99.90
45066;DHT22;30830;53.704;10.004;2023-05-07T00:40:30;8.50;99.90
45066;DHT22;30830;53.704;10.004;2023-05-07T00:42:55;8.60;99.90
45066;DHT22;30830;53.704;10.004;2023-05-07T00:45:26;8.50;99.90
45066;DHT22;30830;53.704;10.004;2023-05-07T00:47:55;8.50;99.90
45066;DHT22;30830;53.704;10.004;2023-05-07T00:50:20;8.50;99.90
45066;DHT22;30830;53.704;10.004;2023-05-07T00:52:46;8.50;99.90
45066;DHT22;30830;53.704;10.004;2023-05-07T00:55:12;8.50;99.90
45066;DHT22;30830;53.704;10.004;2023-05-07T00:57:40;8.50;99.90
45066;DHT22;30830;53.704;10.004;2023-05-07T01:00:08;8.60;99.90
45066;DHT22;30830;53.704;10.004;2023-05-07T01:02:35;8.60;99.90
45066;DHT22;30830;53.704;10.004;2023-05-07T01:05:01;8.50;99.90
45066;DHT22;30830;53.704;10.004;2023-05-07T01:07:29;8.50;99.90
45066;DHT22;30830;53.704;10.004;2023-05-07T01:09:56;8.50;99.90
45066;DHT22;30830;53.704;10.004;2023-05-07T01:12:23;8.60;99.90
45066;DHT22;30830;53.704;10.004;2023-05-07T01:14:49;8.60;99.90
45066;DHT22;30830;53.704;10.004;2023-05-07T01:17:16;8.50;99.90
45066;DHT22;30830;53.704;10.004;2023-05-07T01:19:42;8.50;99.90
45066;DHT22;30830;53.704;10.004;2023-05-07T01:22:10;8.50;99.90
45066;DHT22;30830;53.704;10.004;2023-05-07T01:24:37;8.50;99.90
45066;DHT22;30830;53.704;10.004;2023-05-07T01:27:03;8.40;99.90
45066;DHT22;30830;53.704;10.004;2023-05-07T01:29:28;8.50;99.90
45066;DHT22;30830;53.704;10.004;2023-05-07T01:31:59;8.40;99.90
45066;DHT22;30830;53.704;10.004;2023-05-07T01:34:25;8.50;99.90
45066;DHT22;30830;53.704;10.004;2023-05-07T01:36:54;8.50;99.90
45066;DHT22;30830;53.704;10.004;2023-05-07T01:39:23;8.50;99.90
45066;DHT22;30830;53.704;10.004;2023-05-07T01:41:50;8.40;99.90
45066;DHT22;30830;53.704;10.004;2023-05-07T01:44:17;8.50;99.90
45066;DHT22;30830;53.704;10.004;2023-05-07T01:46:43;8.50;99.90
45066;DHT22;30830;53.704;10.004;2023-05-07T01:49:09;8.40;99.90
45066;DHT22;30830;53.704;10.004;2023-05-07T01:51:35;8.50;99.90
45066;DHT22;30830;53.704;10.004;2023-05-07T01:54:01;8.40;99.90
45066;DHT22;30830;53.704;10.004;2023-05-07T01:56:27;8.40;99.90
45066;DHT22;30830;53.704;10.004;2023-05-07T01:58:52;8.40;99.90
45066;DHT22;30830;53.704;10.004;2023-05-07T02:01:18;8.40;99.90
45066;DHT22;30830;53.704;10.004;2023-05-07T02:03:44;8.40;99.90
45066;DHT22;30830;53.704;10.004;2023-05-07T02:06:09;8.40;99.90
45066;DHT22;30830;53.704;10.004;2023-05-07T02:08:36;8.40;99.90
45066;DHT22;30830;53.704;10.004;2023-05-07T02:11:01;8.40;99.90
45066;DHT22;30830;53.704;10.004;2023-05-07T02:13:29;8.40;99.90
45066;DHT22;30830;53.704;10.004;2023-05-07T02:15:55;8.40;99.90
45066;DHT22;30830;53.704;10.004;2023-05-07T02:18:22;8.40;99.90
45066;DHT22;30830;53.704;10.004;2023-05-07T02:20:47;8.40;99.90
45066;DHT22;30830;53.704;10.004;2023-05-07T02:23:13;8.40;99.90
45066;DHT22;30830;53.704;10.004;2023-05-07T02:25:38;8.30;99.90
45066;DHT22;30830;53.704;10.004;2023-05-07T02:28:04;8.40;99.90
45066;DHT22;30830;53.704;10.004;2023-05-07T02:30:30;8.30;99.90
45066;DHT22;30830;53.704;10.004;2023-05-07T02:32:55;8.40;99.90
45066;DHT22;30830;53.704;10.004;2023-05-07T02:35:21;8.40;99.90
45066;DHT22;30830;53.704;10.004;2023-05-07T02:37:46;8.30;99.90
45066;DHT22;30830;53.704;10.004;2023-05-07T02:40:12;8.30;99.90
45066;DHT22;30830;53.704;10.004;2023-05-07T02:42:38;8.30;99.90
45066;DHT22;30830;53.704;10.004;2023-05-07T02:45:04;8.30;99.90
45066;DHT22;30830;53.704;10.004;2023-05-07T02:47:29;8.30;99.90
45066;DHT22;30830;53.704;10.004;2023-05-07T02:49:55;8.30;99.90
45066;DHT22;30830;53.704;10.004;2023-05-07T02:52:21;8.30;99.90
45066;DHT22;30830;53.704;10.004;2023-05-07T02:54:47;8.40;99.90
45066;DHT22;30830;53.704;10.004;2023-05-07T02:57:12;8.40;99.90
45066;DHT22;30830;53.704;10.004;2023-05-07T02:59:38;8.30;99.90
45066;DHT22;30830;53.704;10.004;2023-05-07T03:02:03;8.30;99.90
45066;DHT22;30830;53.704;10.004;2023-05-07T03:04:29;8.30;99.90
45066;DHT22;30830;53.704;10.004;2023-05-07T03:06:54;8.30;99.90
45066;DHT22;30830;53.704;10.004;2023-05-07T03:09:20;8.40;99.90
45066;DHT22;30830;53.704;10.004;2023-05-07T03:11:46;8.30;99.90
45066;DHT22;30830;53.704;10.004;2023-05-07T03:14:12;8.30;99.90
45066;DHT22;30830;53.704;10.004;2023-05-07T03:16:38;8.30;99.90
45066;DHT22;30830;53.704;10.004;2023-05-07T03:19:03;8.30;99.90
45066;DHT22;30830;53.704;10.004;2023-05-07T03:21:30;8.40;99.90
45066;DHT22;30830;53.704;10.004;2023-05-07T03:23:56;8.30;99.90
45066;DHT22;30830;53.704;10.004;2023-05-07T03:26:21;8.30;99.90
45066;DHT22;30830;53.704;10.004;2023-05-07T03:28:47;8.30;99.90
45066;DHT22;30830;53.704;10.004;2023-05-07T03:31:13;8.40;99.90
45066;DHT22;30830;53.704;10.004;2023-05-07T03:33:58;8.30;99.90
45066;DHT22;30830;53.704;10.004;2023-05-07T03:36:24;8.30;99.90
45066;DHT22;30830;53.704;10.004;2023-05-07T03:38:52;8.30;99.90
45066;DHT22;30830;53.704;10.004;2023-05-07T03:41:18;8.30;99.90
45066;DHT22;30830;53.704;10.004;2023-05-07T03:43:43;8.30;99.90
45066;DHT22;30830;53.704;10.004;2023-05-07T03:46:09;8.30;99.90
45066;DHT22;30830;53.704;10.004;2023-05-07T03:48:34;8.30;99.90
45066;DHT22;30830;53.704;10.004;2023-05-07T03:51:00;8.30;99.90
45066;DHT22;30830;53.704;10.004;2023-05-07T03:53:26;8.30;99.90
45066;DHT22;30830;53.704;10.004;2023-05-07T03:55:51;8.30;99.90
45066;DHT22;30830;53.704;10.004;2023-05-07T03:58:17;8.30;99.90
45066;DHT22;30830;53.704;10.004;2023-05-07T04:00:42;8.30;99.90
45066;DHT22;30830;53.704;10.004;2023-05-07T04:03:08;8.30;99.90
45066;DHT22;30830;53.704;10.004;2023-05-07T04:05:34;8.40;99.90
45066;DHT22;30830;53.704;10.004;2023-05-07T04:08:00;8.40;99.90
45066;DHT22;30830;53.704;10.004;2023-05-07T04:10:25;8.40;99.90
45066;DHT22;30830;53.704;10.004;2023-05-07T04:12:51;8.40;99.90
45066;DHT22;30830;53.704;10.004;2023-05-07T04:15:17;8.40;99.90
45066;DHT22;30830;53.704;10.004;2023-05-07T04:17:42;8.40;99.90
45066;DHT22;30830;53.704;10.004;2023-05-07T04:20:15;8.40;99.90
45066;DHT22;30830;53.704;10.004;2023-05-07T04:22:42;8.40;99.90
45066;DHT22;30830;53.704;10.004;2023-05-07T04:25:08;8.40;99.90
45066;DHT22;30830;53.704;10.004;2023-05-07T04:27:37;8.40;99.90
45066;DHT22;30830;53.704;10.004;2023-05-07T04:30:03;8.40;99.90
45066;DHT22;30830;53.704;10.004;2023-05-07T04:32:29;8.40;99.90
45066;DHT22;30830;53.704;10.004;2023-05-07T04:34:56;8.40;99.90
45066;DHT22;30830;53.704;10.004;2023-05-07T04:37:22;8.40;99.90
45066;DHT22;30830;53.704;10.004;2023-05-07T04:39:47;8.40;99.90
45066;DHT22;30830;53.704;10.004;2023-05-07T04:42:17;8.40;99.90
45066;DHT22;30830;53.704;10.004;2023-05-07T04:44:44;8.40;99.90
45066;DHT22;30830;53.704;10.004;2023-05-07T04:47:10;8.40;99.90
45066;DHT22;30830;53.704;10.004;2023-05-07T04:49:37;8.40;99.90
45066;DHT22;30830;53.704;10.004;2023-05-07T04:52:03;8.40;99.90
45066;DHT22;30830;53.704;10.004;2023-05-07T04:54:28;8.40;99.90
45066;DHT22;30830;53.704;10.004;2023-05-07T04:56:54;8.40;99.90
45066;DHT22;30830;53.704;10.004;2023-05-07T04:59:20;8.40;99.90
45066;DHT22;30830;53.704;10.004;2023-05-07T05:01:46;8.40;99.90
45066;DHT22;30830;53.704;10.004;2023-05-07T05:04:11;8.40;99.90
45066;DHT22;30830;53.704;10.004;2023-05-07T05:06:37;8.50;99.90
45066;DHT22;30830;53.704;10.004;2023-05-07T05:09:02;8.50;99.90
45066;DHT22;30830;53.704;10.004;2023-05-07T05:11:30;8.50;99.90
45066;DHT22;30830;53.704;10.004;2023-05-07T05:13:56;8.50;99.90
45066;DHT22;30830;53.704;10.004;2023-05-07T05:16:22;8.40;99.90
45066;DHT22;30830;53.704;10.004;2023-05-07T05:18:47;8.40;99.90
45066;DHT22;30830;53.704;10.004;2023-05-07T05:21:13;8.50;99.90
45066;DHT22;30830;53.704;10.004;2023-05-07T05:23:39;8.50;99.90
45066;DHT22;30830;53.704;10.004;2023-05-07T05:26:04;8.50;99.90
45066;DHT22;30830;53.704;10.004;2023-05-07T05:28:30;8.60;99.90
45066;DHT22;30830;53.704;10.004;2023-05-07T05:30:55;8.60;99.90
45066;DHT22;30830;53.704;10.004;2023-05-07T05:33:21;8.60;99.90
45066;DHT22;30830;53.704;10.004;2023-05-07T05:35:46;8.60;99.90
45066;DHT22;30830;53.704;10.004;2023-05-07T05:38:12;8.70;99.90
45066;DHT22;30830;53.704;10.004;2023-05-07T05:40:38;8.70;99.90
45066;DHT22;30830;53.704;10.004;2023-05-07T05:43:04;8.70;99.90
45066;DHT22;30830;53.704;10.004;2023-05-07T05:45:29;8.70;99.90
45066;DHT22;30830;53.704;10.004;2023-05-07T05:47:56;8.70;99.90
45066;DHT22;30830;53.704;10.004;2023-05-07T05:50:22;8.80;99.90
45066;DHT22;30830;53.704;10.004;2023-05-07T05:52:47;8.80;99.90
45066;DHT22;30830;53.704;10.004;2023-05-07T05:55:13;8.80;99.90
45066;DHT22;30830;53.704;10.004;2023-05-07T05:57:39;8.90;99.90
45066;DHT22;30830;53.704;10.004;2023-05-07T06:00:06;8.90;99.90
45066;DHT22;30830;53.704;10.004;2023-05-07T06:02:31;8.90;99.90
45066;DHT22;30830;53.704;10.004;2023-05-07T06:04:57;9.00;99.90
45066;DHT22;30830;53.704;10.004;2023-05-07T06:07:23;9.00;99.90
45066;DHT22;30830;53.704;10.004;2023-05-07T06:09:49;9.00;99.90
45066;DHT22;30830;53.704;10.004;2023-05-07T06:12:14;9.00;99.90
45066;DHT22;30830;53.704;10.004;2023-05-07T06:14:40;9.10;99.90
45066;DHT22;30830;53.704;10.004;2023-05-07T06:17:07;9.10;99.90
45066;DHT22;30830;53.704;10.004;2023-05-07T06:19:33;9.10;99.90
45066;DHT22;30830;53.704;10.004;2023-05-07T06:21:58;9.10;99.90
45066;DHT22;30830;53.704;10.004;2023-05-07T06:24:26;9.20;99.90
45066;DHT22;30830;53.704;10.004;2023-05-07T06:26:52;9.20;99.90
45066;DHT22;30830;53.704;10.004;2023-05-07T06:29:17;9.20;99.90
45066;DHT22;30830;53.704;10.004;2023-05-07T06:31:43;9.20;99.90
45066;DHT22;30830;53.704;10.004;2023-05-07T06:34:08;9.30;99.90
45066;DHT22;30830;53.704;10.004;2023-05-07T06:36:34;9.30;99.90
45066;DHT22;30830;53.704;10.004;2023-05-07T06:39:00;9.30;99.90
45066;DHT22;30830;53.704;10.004;2023-05-07T06:41:26;9.30;99.90
45066;DHT22;30830;53.704;10.004;2023-05-07T06:43:52;9.40;99.90
45066;DHT22;30830;53.704;10.004;2023-05-07T06:46:17;9.40;99.90
45066;DHT22;30830;53.704;10.004;2023-05-07T06:48:43;9.40;99.90
45066;DHT22;30830;53.704;10.004;2023-05-07T06:51:08;9.40;99.90
45066;DHT22;30830;53.704;10.004;2023-05-07T06:53:35;9.50;99.90
45066;DHT22;30830;53.704;10.004;2023-05-07T06:56:00;9.50;99.90
45066;DHT22;30830;53.704;10.004;2023-05-07T06:58:26;9.50;99.90
45066;DHT22;30830;53.704;10.004;2023-05-07T07:00:53;9.50;99.90
45066;DHT22;30830;53.704;10.004;2023-05-07T07:03:20;9.50;99.90
45066;DHT22;30830;53.704;10.004;2023-05-07T07:05:46;9.60;99.90
45066;DHT22;30830;53.704;10.004;2023-05-07T07:08:11;9.60;99.90
45066;DHT22;30830;53.704;10.004;2023-05-07T07:10:37;9.60;99.90
45066;DHT22;30830;53.704;10.004;2023-05-07T07:13:02;9.70;99.90
45066;DHT22;30830;53.704;10.004;2023-05-07T07:15:28;9.70;99.90
45066;DHT22;30830;53.704;10.004;2023-05-07T07:17:53;9.80;99.90
45066;DHT22;30830;53.704;10.004;2023-05-07T07:20:19;9.90;99.90
45066;DHT22;30830;53.704;10.004;2023-05-07T07:22:44;9.90;99.90
45066;DHT22;30830;53.704;10.004;2023-05-07T07:25:10;10.00;99.90
45066;DHT22;30830;53.704;10.004;2023-05-07T07:27:37;10.00;99.90
45066;DHT22;30830;53.704;10.004;2023-05-07T07:30:03;10.10;99.90
45066;DHT22;30830;53.704;10.004;2023-05-07T07:32:29;10.10;99.90
45066;DHT22;30830;53.704;10.004;2023-05-07T07:34:54;10.10;99.90
45066;DHT22;30830;53.704;10.004;2023-05-07T07:37:20;10.10;99.90
45066;DHT22;30830;53.704;10.004;2023-05-07T07:39:45;10.10;99.90
45066;DHT22;30830;53.704;10.004;2023-05-07T07:42:11;10.10;99.90
45066;DHT22;30830;53.704;10.004;2023-05-07T07:44:36;10.20;99.90
45066;DHT22;30830;53.704;10.004;2023-05-07T07:47:02;10.20;99.90
45066;DHT22;30830;53.704;10.004;2023-05-07T07:49:28;10.20;99.90
45066;DHT22;30830;53.704;10.004;2023-05-07T07:51:53;10.20;99.90
45066;DHT22;30830;53.704;10.004;2023-05-07T07:54:19;10.30;99.90
45066;DHT22;30830;53.704;10.004;2023-05-07T07:56:44;10.30;99.90
45066;DHT22;30830;53.704;10.004;2023-05-07T07:59:10;10.30;99.90
45066;DHT22;30830;53.704;10.004;2023-05-07T08:01:35;10.40;99.90
45066;DHT22;30830;53.704;10.004;2023-05-07T08:04:01;10.40;99.90
45066;DHT22;30830;53.704;10.004;2023-05-07T08:06:28;10.40;99.90
45066;DHT22;30830;53.704;10.004;2023-05-07T08:08:54;10.40;99.90
45066;DHT22;30830;53.704;10.004;2023-05-07T08:11:20;10.40;99.90
45066;DHT22;30830;53.704;10.004;2023-05-07T08:13:46;10.40;99.90
45066;DHT22;30830;53.704;10.004;2023-05-07T08:16:12;10.40;99.90
45066;DHT22;30830;53.704;10.004;2023-05-07T08:18:38;10.40;99.90
45066;DHT22;30830;53.704;10.004;2023-05-07T08:21:04;10.40;99.90
45066;DHT22;30830;53.704;10.004;2023-05-07T08:23:29;10.50;99.90
45066;DHT22;30830;53.704;10.004;2023-05-07T08:25:55;10.60;99.90
45066;DHT22;30830;53.704;10.004;2023-05-07T08:28:21;10.70;99.90
45066;DHT22;30830;53.704;10.004;2023-05-07T08:30:47;10.80;99.90
45066;DHT22;30830;53.704;10.004;2023-05-07T08:33:12;10.80;99.90
45066;DHT22;30830;53.704;10.004;2023-05-07T08:35:38;10.90;99.90
45066;DHT22;30830;53.704;10.004;2023-05-07T08:38:03;10.90;99.90
45066;DHT22;30830;53.704;10.004;2023-05-07T08:40:36;10.90;99.90
45066;DHT22;30830;53.704;10.004;2023-05-07T08:43:02;11.00;99.90
45066;DHT22;30830;53.704;10.004;2023-05-07T08:45:30;11.00;99.90
45066;DHT22;30830;53.704;10.004;2023-05-07T08:48:03;11.00;99.90
45066;DHT22;30830;53.704;10.004;2023-05-07T08:50:31;11.10;99.90
45066;DHT22;30830;53.704;10.004;2023-05-07T08:52:57;11.10;99.90
45066;DHT22;30830;53.704;10.004;2023-05-07T08:55:23;11.20;99.90
45066;DHT22;30830;53.704;10.004;2023-05-07T08:57:49;11.20;99.90
45066;DHT22;30830;53.704;10.004;2023-05-07T09:00:15;11.20;99.90
45066;DHT22;30830;53.704;10.004;2023-05-07T09:02:41;11.20;99.90
45066;DHT22;30830;53.704;10.004;2023-05-07T09:05:07;11.20;99.90
45066;DHT22;30830;53.704;10.004;2023-05-07T09:07:33;11.20;99.90
45066;DHT22;30830;53.704;10.004;2023-05-07T09:10:04;11.20;99.90
45066;DHT22;30830;53.704;10.004;2023-05-07T09:12:30;11.20;99.90
45066;DHT22;30830;53.704;10.004;2023-05-07T09:14:56;11.20;99.90
45066;DHT22;30830;53.704;10.004;2023-05-07T09:17:22;11.30;99.90
45066;DHT22;30830;53.704;10.004;2023-05-07T09:19:47;11.30;99.90
45066;DHT22;30830;53.704;10.004;2023-05-07T09:22:13;11.40;99.90
45066;DHT22;30830;53.704;10.004;2023-05-07T09:24:38;11.40;99.90
45066;DHT22;30830;53.704;10.004;2023-05-07T09:27:05;11.40;99.90
45066;DHT22;30830;53.704;10.004;2023-05-07T09:29:31;11.40;99.90
45066;DHT22;30830;53.704;10.004;2023-05-07T09:32:06;11.50;99.90
45066;DHT22;30830;53.704;10.004;2023-05-07T09:34:32;11.50;99.90
45066;DHT22;30830;53.704;10.004;2023-05-07T09:37:02;11.50;99.90
45066;DHT22;30830;53.704;10.004;2023-05-07T09:39:48;11.60;99.90
45066;DHT22;30830;53.704;10.004;2023-05-07T09:42:14;11.70;99.90
45066;DHT22;30830;53.704;10.004;2023-05-07T09:44:41;11.70;99.90
45066;DHT22;30830;53.704;10.004;2023-05-07T09:47:08;11.80;99.90
45066;DHT22;30830;53.704;10.004;2023-05-07T09:49:37;11.80;99.90
45066;DHT22;30830;53.704;10.004;2023-05-07T09:52:05;12.00;99.90
45066;DHT22;30830;53.704;10.004;2023-05-07T09:54:35;12.00;99.90
45066;DHT22;30830;53.704;10.004;2023-05-07T09:57:04;12.10;99.90
45066;DHT22;30830;53.704;10.004;2023-05-07T09:59:32;12.10;99.90
45066;DHT22;30830;53.704;10.004;2023-05-07T10:01:59;12.10;99.90
45066;DHT22;30830;53.704;10.004;2023-05-07T10:04:26;12.10;99.90
45066;DHT22;30830;53.704;10.004;2023-05-07T10:06:52;12.10;99.90
45066;DHT22;30830;53.704;10.004;2023-05-07T10:09:19;12.20;99.90
45066;DHT22;30830;53.704;10.004;2023-05-07T10:11:45;12.30;99.90
45066;DHT22;30830;53.704;10.004;2023-05-07T10:14:11;12.30;99.90
45066;DHT22;30830;53.704;10.004;2023-05-07T10:16:37;12.40;99.90
45066;DHT22;30830;53.704;10.004;2023-05-07T10:19:03;12.40;99.90
45066;DHT22;30830;53.704;10.004;2023-05-07T10:21:30;12.40;99.90
45066;DHT22;30830;53.704;10.004;2023-05-07T10:24:09;12.50;99.90
45066;DHT22;30830;53.704;10.004;2023-05-07T10:26:45;12.50;99.90
45066;DHT22;30830;53.704;10.004;2023-05-07T10:29:32;12.60;99.90
45066;DHT22;30830;53.704;10.004;2023-05-07T10:34:47;12.80;99.90
45066;DHT22;30830;53.704;10.004;2023-05-07T10:37:14;13.00;99.90
45066;DHT22;30830;53.704;10.004;2023-05-07T10:39:41;13.10;99.90
45066;DHT22;30830;53.704;10.004;2023-05-07T10:42:10;13.10;99.90
45066;DHT22;30830;53.704;10.004;2023-05-07T10:44:36;13.10;99.90
45066;DHT22;30830;53.704;10.004;2023-05-07T10:47:13;13.20;99.90
45066;DHT22;30830;53.704;10.004;2023-05-07T10:52:15;13.30;99.90
45066;DHT22;30830;53.704;10.004;2023-05-07T10:54:42;13.50;99.90
45066;DHT22;30830;53.704;10.004;2023-05-07T10:59:53;14.00;99.90
45066;DHT22;30830;53.704;10.004;2023-05-07T11:02:19;14.00;99.90
45066;DHT22;30830;53.704;10.004;2023-05-07T11:04:45;14.10;99.90
45066;DHT22;30830;53.704;10.004;2023-05-07T11:07:24;14.10;99.90
45066;DHT22;30830;53.704;10.004;2023-05-07T11:15:09;14.40;99.90
45066;DHT22;30830;53.704;10.004;2023-05-07T11:17:52;14.40;99.90
45066;DHT22;30830;53.704;10.004;2023-05-07T11:20:18;14.50;99.90
45066;DHT22;30830;53.704;10.004;2023-05-07T11:22:44;14.50;99.90
45066;DHT22;30830;53.704;10.004;2023-05-07T11:25:10;14.50;99.90
45066;DHT22;30830;53.704;10.004;2023-05-07T11:27:36;14.60;99.90
45066;DHT22;30830;53.704;10.004;2023-05-07T11:30:01;14.50;99.90
45066;DHT22;30830;53.704;10.004;2023-05-07T11:32:28;14.50;99.90
45066;DHT22;30830;53.704;10.004;2023-05-07T11:34:55;14.40;99.90
45066;DHT22;30830;53.704;10.004;2023-05-07T11:37:22;14.40;99.90
45066;DHT22;30830;53.704;10.004;2023-05-07T11:39:48;14.50;99.90
45066;DHT22;30830;53.704;10.004;2023-05-07T11:42:34;14.50;99.90
45066;DHT22;30830;53.704;10.004;2023-05-07T11:45:01;14.60;99.90
45066;DHT22;30830;53.704;10.004;2023-05-07T11:47:30;14.60;99.90
45066;DHT22;30830;53.704;10.004;2023-05-07T11:49:56;14.70;99.90
45066;DHT22;30830;53.704;10.004;2023-05-07T11:52:23;14.80;99.90
45066;DHT22;30830;53.704;10.004;2023-05-07T11:54:53;14.80;99.90
45066;DHT22;30830;53.704;10.004;2023-05-07T11:57:20;14.90;99.90
45066;DHT22;30830;53.704;10.004;2023-05-07T11:59:46;14.80;99.90
45066;DHT22;30830;53.704;10.004;2023-05-07T12:02:15;14.90;99.90
45066;DHT22;30830;53.704;10.004;2023-05-07T12:04:41;14.90;99.90
45066;DHT22;30830;53.704;10.004;2023-05-07T12:07:12;14.90;99.90
45066;DHT22;30830;53.704;10.004;2023-05-07T12:09:39;15.00;99.90
45066;DHT22;30830;53.704;10.004;2023-05-07T12:12:05;15.00;99.90
45066;DHT22;30830;53.704;10.004;2023-05-07T12:14:31;15.10;99.90
45066;DHT22;30830;53.704;10.004;2023-05-07T12:16:58;15.10;99.90
45066;DHT22;30830;53.704;10.004;2023-05-07T12:19:24;15.10;99.90
45066;DHT22;30830;53.704;10.004;2023-05-07T12:21:50;15.10;99.90
45066;DHT22;30830;53.704;10.004;2023-05-07T12:24:16;15.20;99.90
45066;DHT22;30830;53.704;10.004;2023-05-07T12:26:42;15.20;99.90
45066;DHT22;30830;53.704;10.004;2023-05-07T12:29:08;15.30;99.90
45066;DHT22;30830;53.704;10.004;2023-05-07T12:31:34;15.40;99.90
45066;DHT22;30830;53.704;10.004;2023-05-07T12:33:59;15.40;99.90
45066;DHT22;30830;53.704;10.004;2023-05-07T12:36:25;15.30;99.90
45066;DHT22;30830;53.704;10.004;2023-05-07T12:38:51;15.40;99.90
45066;DHT22;30830;53.704;10.004;2023-05-07T12:41:16;15.40;99.90
45066;DHT22;30830;53.704;10.004;2023-05-07T12:43:45;15.50;99.90
45066;DHT22;30830;53.704;10.004;2023-05-07T12:46:11;15.50;99.90
45066;DHT22;30830;53.704;10.004;2023-05-07T12:48:44;15.60;99.90
45066;DHT22;30830;53.704;10.004;2023-05-07T12:51:11;15.70;99.90
45066;DHT22;30830;53.704;10.004;2023-05-07T12:53:42;15.70;99.90
45066;DHT22;30830;53.704;10.004;2023-05-07T12:56:08;15.80;99.90
45066;DHT22;30830;53.704;10.004;2023-05-07T12:58:35;15.90;99.90
45066;DHT22;30830;53.704;10.004;2023-05-07T13:01:05;15.90;99.90
45066;DHT22;30830;53.704;10.004;2023-05-07T13:03:37;15.90;99.90
45066;DHT22;30830;53.704;10.004;2023-05-07T13:06:09;16.00;99.90
45066;DHT22;30830;53.704;10.004;2023-05-07T13:08:41;16.10;99.90
45066;DHT22;30830;53.704;10.004;2023-05-07T13:11:09;16.20;99.90
45066;DHT22;30830;53.704;10.004;2023-05-07T13:13:37;16.30;99.90
45066;DHT22;30830;53.704;10.004;2023-05-07T13:16:04;16.40;99.90
45066;DHT22;30830;53.704;10.004;2023-05-07T13:18:31;16.50;99.90
45066;DHT22;30830;53.704;10.004;2023-05-07T13:20:57;16.50;99.90
45066;DHT22;30830;53.704;10.004;2023-05-07T13:23:23;16.40;99.90
45066;DHT22;30830;53.704;10.004;2023-05-07T13:25:49;16.50;99.90
45066;DHT22;30830;53.704;10.004;2023-05-07T13:28:15;16.60;99.90
45066;DHT22;30830;53.704;10.004;2023-05-07T13:30:40;16.60;99.90
45066;DHT22;30830;53.704;10.004;2023-05-07T13:33:06;16.70;99.90
45066;DHT22;30830;53.704;10.004;2023-05-07T13:35:32;16.90;99.90
45066;DHT22;30830;53.704;10.004;2023-05-07T13:37:57;17.00;99.90
45066;DHT22;30830;53.704;10.004;2023-05-07T13:40:23;17.20;99.90
45066;DHT22;30830;53.704;10.004;2023-05-07T13:42:49;17.30;99.90
45066;DHT22;30830;53.704;10.004;2023-05-07T13:45:15;17.40;99.90
45066;DHT22;30830;53.704;10.004;2023-05-07T13:47:44;17.50;99.90
45066;DHT22;30830;53.704;10.004;2023-05-07T13:50:11;17.40;99.90
45066;DHT22;30830;53.704;10.004;2023-05-07T13:52:37;17.40;99.90
45066;DHT22;30830;53.704;10.004;2023-05-07T13:55:03;17.40;99.90
45066;DHT22;30830;53.704;10.004;2023-05-07T13:57:29;17.40;99.90
45066;DHT22;30830;53.704;10.004;2023-05-07T13:59:54;17.30;99.90
45066;DHT22;30830;53.704;10.004;2023-05-07T14:02:20;17.30;99.90
45066;DHT22;30830;53.704;10.004;2023-05-07T14:04:46;17.30;99.90
45066;DHT22;30830;53.704;10.004;2023-05-07T14:07:11;17.40;99.90
45066;DHT22;30830;53.704;10.004;2023-05-07T14:09:37;17.30;99.90
45066;DHT22;30830;53.704;10.004;2023-05-07T14:12:03;17.30;99.90
45066;DHT22;30830;53.704;10.004;2023-05-07T14:14:28;17.40;99.90
45066;DHT22;30830;53.704;10.004;2023-05-07T14:16:54;17.30;99.90
45066;DHT22;30830;53.704;10.004;2023-05-07T14:19:19;17.30;99.90
45066;DHT22;30830;53.704;10.004;2023-05-07T14:21:45;17.40;99.90
45066;DHT22;30830;53.704;10.004;2023-05-07T14:24:10;17.40;99.90
45066;DHT22;30830;53.704;10.004;2023-05-07T14:26:36;17.50;99.90
45066;DHT22;30830;53.704;10.004;2023-05-07T14:29:02;17.50;99.90
45066;DHT22;30830;53.704;10.004;2023-05-07T14:31:28;17.50;99.90
45066;DHT22;30830;53.704;10.004;2023-05-07T14:33:54;17.50;99.90
45066;DHT22;30830;53.704;10.004;2023-05-07T14:36:20;17.50;99.70
45066;DHT22;30830;53.704;10.004;2023-05-07T14:38:47;17.50;99.70
45066;DHT22;30830;53.704;10.004;2023-05-07T14:41:12;17.40;99.90
45066;DHT22;30830;53.704;10.004;2023-05-07T14:43:38;17.30;99.90
45066;DHT22;30830;53.704;10.004;2023-05-07T14:46:03;17.20;99.90
45066;DHT22;30830;53.704;10.004;2023-05-07T14:48:29;17.10;99.90
45066;DHT22;30830;53.704;10.004;2023-05-07T14:50:55;17.10;99.90
45066;DHT22;30830;53.704;10.004;2023-05-07T14:53:22;17.20;99.90
45066;DHT22;30830;53.704;10.004;2023-05-07T14:55:48;17.20;99.90
45066;DHT22;30830;53.704;10.004;2023-05-07T14:58:13;17.20;99.90
45066;DHT22;30830;53.704;10.004;2023-05-07T15:00:39;17.20;99.70
45066;DHT22;30830;53.704;10.004;2023-05-07T15:03:07;17.20;99.90
45066;DHT22;30830;53.704;10.004;2023-05-07T15:05:33;17.10;99.60
45066;DHT22;30830;53.704;10.004;2023-05-07T15:07:59;17.00;99.90
45066;DHT22;30830;53.704;10.004;2023-05-07T15:10:25;17.00;99.90
45066;DHT22;30830;53.704;10.004;2023-05-07T15:12:51;16.90;99.90
45066;DHT22;30830;53.704;10.004;2023-05-07T15:15:16;16.90;99.90
45066;DHT22;30830;53.704;10.004;2023-05-07T15:17:42;16.90;99.90
45066;DHT22;30830;53.704;10.004;2023-05-07T15:20:08;16.80;99.90
45066;DHT22;30830;53.704;10.004;2023-05-07T15:22:33;16.80;99.90
45066;DHT22;30830;53.704;10.004;2023-05-07T15:25:01;16.70;99.90
45066;DHT22;30830;53.704;10.004;2023-05-07T15:27:27;16.70;99.90
45066;DHT22;30830;53.704;10.004;2023-05-07T15:29:52;16.60;99.90
45066;DHT22;30830;53.704;10.004;2023-05-07T15:32:18;16.60;99.90